sensor_id;sensor_type;location;lat;lon;timestamp;temperature;humidity
14349;DHT22;7258;50.376;8.742;2023-08-17T00:00:27;18.20;99.90
14349;DHT22;7258;50.376;8.742;2023-08-17T00:02:29;18.10;99.90
14349;DHT22;7258;50.376;8.742;2023-08-17T00:04:35;18.00;99.90
14349;DHT22;7258;50.376;8.742;2023-08-17T00:06:38;18.00;99.90
14349;DHT22;7258;50.376;8.742;2023-08-17T00:08:41;17.90;99.90
14349;DHT22;7258;50.376;8.742;2023-08-17T00:10:44;17.90;99.90
14349;DHT22;7258;50.376;8.742;2023-08-17T00:12:49;17.80;99.90
14349;DHT22;7258;50.376;8.742;2023-08-17T00:14:53;17.80;99.90
14349;DHT22;7258;50.376;8.742;2023-08-17T00:16:56;17.80;99.90
14349;DHT22;7258;50.376;8.742;2023-08-17T00:18:59;17.70;99.90
14349;DHT22;7258;50.376;8.742;2023-08-17T00:21:02;17.70;99.90
14349;DHT22;7258;50.376;8.742;2023-08-17T00:23:05;17.70;99.90
14349;DHT22;7258;50.376;8.742;2023-08-17T00:25:08;17.70;99.90
14349;DHT22;7258;50.376;8.742;2023-08-17T00:27:11;17.70;99.90
14349;DHT22;7258;50.376;8.742;2023-08-17T00:29:16;17.60;99.90
14349;DHT22;7258;50.376;8.742;2023-08-17T00:31:19;17.60;99.90
14349;DHT22;7258;50.376;8.742;2023-08-17T00:33:22;17.60;99.90
14349;DHT22;7258;50.376;8.742;2023-08-17T00:35:24;17.50;99.90
14349;DHT22;7258;50.376;8.742;2023-08-17T00:37:26;17.50;99.90
14349;DHT22;7258;50.376;8.742;2023-08-17T00:39:29;17.60;99.90
14349;DHT22;7258;50.376;8.742;2023-08-17T00:41:32;17.60;99.90
14349;DHT22;7258;50.376;8.742;2023-08-17T00:43:35;17.50;99.90
14349;DHT22;7258;50.376;8.742;2023-08-17T00:45:38;17.50;99.90
14349;DHT22;7258;50.376;8.742;2023-08-17T00:47:47;17.50;99.90
14349;DHT22;7258;50.376;8.742;2023-08-17T00:49:54;17.40;99.90
14349;DHT22;7258;50.376;8.742;2023-08-17T00:52:00;17.50;99.90
14349;DHT22;7258;50.376;8.742;2023-08-17T00:54:04;17.50;99.90
14349;DHT22;7258;50.376;8.742;2023-08-17T00:56:07;17.50;99.90
14349;DHT22;7258;50.376;8.742;2023-08-17T00:58:11;17.40;99.90
14349;DHT22;7258;50.376;8.742;2023-08-17T01:00:17;17.40;99.90
14349;DHT22;7258;50.376;8.742;2023-08-17T01:02:25;17.40;99.90
14349;DHT22;7258;50.376;8.742;2023-08-17T01:04:28;17.40;99.90
14349;DHT22;7258;50.376;8.742;2023-08-17T01:06:31;17.40;99.90
14349;DHT22;7258;50.376;8.742;2023-08-17T01:08:41;17.40;99.90
14349;DHT22;7258;50.376;8.742;2023-08-17T01:10:52;17.40;99.90
14349;DHT22;7258;50.376;8.742;2023-08-17T01:13:02;17.40;99.90
14349;DHT22;7258;50.376;8.742;2023-08-17T01:15:10;17.40;99.90
14349;DHT22;7258;50.376;8.742;2023-08-17T01:17:18;17.40;99.90
14349;DHT22;7258;50.376;8.742;2023-08-17T01:19:27;17.50;99.90
14349;DHT22;7258;50.376;8.742;2023-08-17T01:21:38;17.40;99.90
14349;DHT22;7258;50.376;8.742;2023-08-17T01:23:45;17.50;99.90
14349;DHT22;7258;50.376;8.742;2023-08-17T01:25:48;17.40;99.90
14349;DHT22;7258;50.376;8.742;2023-08-17T01:27:51;17.40;99.90
14349;DHT22;7258;50.376;8.742;2023-08-17T01:29:54;17.40;99.90
14349;DHT22;7258;50.376;8.742;2023-08-17T01:32:06;17.40;99.90
14349;DHT22;7258;50.376;8.742;2023-08-17T01:34:12;17.40;99.90
14349;DHT22;7258;50.376;8.742;2023-08-17T01:36:36;17.40;99.90
14349;DHT22;7258;50.376;8.742;2023-08-17T01:38:40;17.30;99.90
14349;DHT22;7258;50.376;8.742;2023-08-17T01:40:45;17.30;99.90
14349;DHT22;7258;50.376;8.742;2023-08-17T01:42:49;17.30;99.90
14349;DHT22;7258;50.376;8.742;2023-08-17T01:44:53;17.30;99.90
14349;DHT22;7258;50.376;8.742;2023-08-17T01:46:57;17.20;99.90
14349;DHT22;7258;50.376;8.742;2023-08-17T01:48:59;17.20;99.90
14349;DHT22;7258;50.376;8.742;2023-08-17T01:51:02;17.20;99.90
14349;DHT22;7258;50.376;8.742;2023-08-17T01:53:05;17.20;99.90
14349;DHT22;7258;50.376;8.742;2023-08-17T01:55:08;17.20;99.90
14349;DHT22;7258;50.376;8.742;2023-08-17T01:57:12;17.10;99.90
14349;DHT22;7258;50.376;8.742;2023-08-17T01:59:15;17.10;99.90
14349;DHT22;7258;50.376;8.742;2023-08-17T02:01:17;17.10;99.90
14349;DHT22;7258;50.376;8.742;2023-08-17T02:03:20;17.10;99.90
14349;DHT22;7258;50.376;8.742;2023-08-17T02:05:23;17.10;99.90
14349;DHT22;7258;50.376;8.742;2023-08-17T02:07:27;17.00;99.90
14349;DHT22;7258;50.376;8.742;2023-08-17T02:09:30;17.10;99.90
14349;DHT22;7258;50.376;8.742;2023-08-17T02:11:33;17.00;99.90
14349;DHT22;7258;50.376;8.742;2023-08-17T02:13:37;17.00;99.90
14349;DHT22;7258;50.376;8.742;2023-08-17T02:15:40;16.90;99.90
14349;DHT22;7258;50.376;8.742;2023-08-17T02:17:43;16.90;99.90
14349;DHT22;7258;50.376;8.742;2023-08-17T02:19:46;16.90;99.90
14349;DHT22;7258;50.376;8.742;2023-08-17T02:21:49;16.90;99.90
14349;DHT22;7258;50.376;8.742;2023-08-17T02:23:52;16.90;99.90
14349;DHT22;7258;50.376;8.742;2023-08-17T02:25:55;16.90;99.90
14349;DHT22;7258;50.376;8.742;2023-08-17T02:27:58;16.90;99.90
14349;DHT22;7258;50.376;8.742;2023-08-17T02:30:03;16.90;99.90
14349;DHT22;7258;50.376;8.742;2023-08-17T02:32:05;16.90;99.90
14349;DHT22;7258;50.376;8.742;2023-08-17T02:34:08;16.80;99.90
14349;DHT22;7258;50.376;8.742;2023-08-17T02:36:11;16.80;99.90
14349;DHT22;7258;50.376;8.742;2023-08-17T02:38:14;16.80;99.90
14349;DHT22;7258;50.376;8.742;2023-08-17T02:40:16;16.80;99.90
14349;DHT22;7258;50.376;8.742;2023-08-17T02:42:19;16.70;99.90
14349;DHT22;7258;50.376;8.742;2023-08-17T02:44:22;16.70;99.90
14349;DHT22;7258;50.376;8.742;2023-08-17T02:46:26;16.60;99.90
14349;DHT22;7258;50.376;8.742;2023-08-17T02:48:30;16.60;99.90
14349;DHT22;7258;50.376;8.742;2023-08-17T02:50:34;16.60;99.90
14349;DHT22;7258;50.376;8.742;2023-08-17T02:52:36;16.60;99.90
14349;DHT22;7258;50.376;8.742;2023-08-17T02:54:39;16.60;99.90
14349;DHT22;7258;50.376;8.742;2023-08-17T02:56:42;16.50;99.90
14349;DHT22;7258;50.376;8.742;2023-08-17T02:58:45;16.50;99.90
14349;DHT22;7258;50.376;8.742;2023-08-17T03:00:50;16.50;99.90
14349;DHT22;7258;50.376;8.742;2023-08-17T03:02:55;16.50;99.90
14349;DHT22;7258;50.376;8.742;2023-08-17T03:04:58;16.40;99.90
14349;DHT22;7258;50.376;8.742;2023-08-17T03:07:01;16.40;99.90
14349;DHT22;7258;50.376;8.742;2023-08-17T03:09:04;16.40;99.90
14349;DHT22;7258;50.376;8.742;2023-08-17T03:11:07;16.40;99.90
14349;DHT22;7258;50.376;8.742;2023-08-17T03:13:11;16.40;99.90
14349;DHT22;7258;50.376;8.742;2023-08-17T03:15:14;16.40;99.90
14349;DHT22;7258;50.376;8.742;2023-08-17T03:17:17;16.40;99.90
14349;DHT22;7258;50.376;8.742;2023-08-17T03:19:21;16.40;99.90
14349;DHT22;7258;50.376;8.742;2023-08-17T03:21:24;16.40;99.90
14349;DHT22;7258;50.376;8.742;2023-08-17T03:23:27;16.40;99.90
14349;DHT22;7258;50.376;8.742;2023-08-17T03:25:30;16.40;99.90
14349;DHT22;7258;50.376;8.742;2023-08-17T03:27:32;16.40;99.90
14349;DHT22;7258;50.376;8.742;2023-08-17T03:29:35;16.40;99.90
14349;DHT22;7258;50.376;8.742;2023-08-17T03:31:38;16.40;99.90
14349;DHT22;7258;50.376;8.742;2023-08-17T03:33:40;16.30;99.90
14349;DHT22;7258;50.376;8.742;2023-08-17T03:35:44;16.30;99.90
14349;DHT22;7258;50.376;8.742;2023-08-17T03:37:46;16.30;99.90
14349;DHT22;7258;50.376;8.742;2023-08-17T03:39:49;16.30;99.90
14349;DHT22;7258;50.376;8.742;2023-08-17T03:41:52;16.30;99.90
14349;DHT22;7258;50.376;8.742;2023-08-17T03:43:54;16.30;99.90
14349;DHT22;7258;50.376;8.742;2023-08-17T03:45:57;16.30;99.90
14349;DHT22;7258;50.376;8.742;2023-08-17T03:48:00;16.30;99.90
14349;DHT22;7258;50.376;8.742;2023-08-17T03:50:04;16.30;99.90
14349;DHT22;7258;50.376;8.742;2023-08-17T03:52:08;16.30;99.90
14349;DHT22;7258;50.376;8.742;2023-08-17T03:54:12;16.30;99.90
14349;DHT22;7258;50.376;8.742;2023-08-17T03:56:15;16.30;99.90
14349;DHT22;7258;50.376;8.742;2023-08-17T03:58:18;16.30;99.90
14349;DHT22;7258;50.376;8.742;2023-08-17T04:00:21;16.30;99.90
14349;DHT22;7258;50.376;8.742;2023-08-17T04:02:24;16.30;99.90
14349;DHT22;7258;50.376;8.742;2023-08-17T04:04:27;16.30;99.90
14349;DHT22;7258;50.376;8.742;2023-08-17T04:06:30;16.30;99.90
14349;DHT22;7258;50.376;8.742;2023-08-17T04:08:34;16.30;99.90
14349;DHT22;7258;50.376;8.742;2023-08-17T04:10:37;16.40;99.90
14349;DHT22;7258;50.376;8.742;2023-08-17T04:12:40;16.40;99.90
14349;DHT22;7258;50.376;8.742;2023-08-17T04:14:41;16.50;99.90
14349;DHT22;7258;50.376;8.742;2023-08-17T04:16:44;16.50;99.90
14349;DHT22;7258;50.376;8.742;2023-08-17T04:18:47;16.50;99.90
14349;DHT22;7258;50.376;8.742;2023-08-17T04:20:50;16.60;99.90
14349;DHT22;7258;50.376;8.742;2023-08-17T04:22:55;16.60;99.90
14349;DHT22;7258;50.376;8.742;2023-08-17T04:25:00;16.60;99.90
14349;DHT22;7258;50.376;8.742;2023-08-17T04:27:03;16.60;99.90
14349;DHT22;7258;50.376;8.742;2023-08-17T04:29:06;16.60;99.90
14349;DHT22;7258;50.376;8.742;2023-08-17T04:31:09;16.60;99.90
14349;DHT22;7258;50.376;8.742;2023-08-17T04:33:12;16.60;99.90
14349;DHT22;7258;50.376;8.742;2023-08-17T04:35:15;16.60;99.90
14349;DHT22;7258;50.376;8.742;2023-08-17T04:37:18;16.60;99.90
14349;DHT22;7258;50.376;8.742;2023-08-17T04:39:21;16.60;99.90
14349;DHT22;7258;50.376;8.742;2023-08-17T04:41:25;16.70;99.90
14349;DHT22;7258;50.376;8.742;2023-08-17T04:43:29;16.70;99.90
14349;DHT22;7258;50.376;8.742;2023-08-17T04:45:31;16.70;99.90
14349;DHT22;7258;50.376;8.742;2023-08-17T04:47:33;16.70;99.90
14349;DHT22;7258;50.376;8.742;2023-08-17T04:49:36;16.70;99.90
14349;DHT22;7258;50.376;8.742;2023-08-17T04:51:39;16.70;99.90
14349;DHT22;7258;50.376;8.742;2023-08-17T04:53:42;16.70;99.90
14349;DHT22;7258;50.376;8.742;2023-08-17T04:55:44;16.80;99.90
14349;DHT22;7258;50.376;8.742;2023-08-17T04:57:49;16.80;99.90
14349;DHT22;7258;50.376;8.742;2023-08-17T04:59:51;16.90;99.90
14349;DHT22;7258;50.376;8.742;2023-08-17T05:01:54;16.90;99.90
14349;DHT22;7258;50.376;8.742;2023-08-17T05:03:57;16.90;99.90
14349;DHT22;7258;50.376;8.742;2023-08-17T05:06:00;16.90;99.90
14349;DHT22;7258;50.376;8.742;2023-08-17T05:08:03;17.00;99.90
14349;DHT22;7258;50.376;8.742;2023-08-17T05:10:07;17.00;99.90
14349;DHT22;7258;50.376;8.742;2023-08-17T05:12:10;17.00;99.90
14349;DHT22;7258;50.376;8.742;2023-08-17T05:14:14;17.00;99.90
14349;DHT22;7258;50.376;8.742;2023-08-17T05:16:17;17.00;99.90
14349;DHT22;7258;50.376;8.742;2023-08-17T05:18:20;17.10;99.90
14349;DHT22;7258;50.376;8.742;2023-08-17T05:20:22;17.10;99.90
14349;DHT22;7258;50.376;8.742;2023-08-17T05:22:27;17.10;99.90
14349;DHT22;7258;50.376;8.742;2023-08-17T05:24:30;17.20;99.90
14349;DHT22;7258;50.376;8.742;2023-08-17T05:26:33;17.20;99.90
14349;DHT22;7258;50.376;8.742;2023-08-17T05:28:35;17.20;99.90
14349;DHT22;7258;50.376;8.742;2023-08-17T05:30:40;17.20;99.90
14349;DHT22;7258;50.376;8.742;2023-08-17T05:32:43;17.30;99.90
14349;DHT22;7258;50.376;8.742;2023-08-17T05:34:46;17.40;99.90
14349;DHT22;7258;50.376;8.742;2023-08-17T05:36:49;17.40;99.90
14349;DHT22;7258;50.376;8.742;2023-08-17T05:38:52;17.40;99.90
14349;DHT22;7258;50.376;8.742;2023-08-17T05:40:55;17.50;99.90
14349;DHT22;7258;50.376;8.742;2023-08-17T05:42:58;17.50;99.90
14349;DHT22;7258;50.376;8.742;2023-08-17T05:45:01;17.60;99.90
14349;DHT22;7258;50.376;8.742;2023-08-17T05:47:06;17.60;99.90
14349;DHT22;7258;50.376;8.742;2023-08-17T05:49:08;17.70;99.90
14349;DHT22;7258;50.376;8.742;2023-08-17T05:51:11;17.80;99.90
14349;DHT22;7258;50.376;8.742;2023-08-17T05:53:14;17.80;99.90
14349;DHT22;7258;50.376;8.742;2023-08-17T05:55:17;17.90;99.90
14349;DHT22;7258;50.376;8.742;2023-08-17T05:57:20;18.00;99.90
14349;DHT22;7258;50.376;8.742;2023-08-17T05:59:23;18.10;99.90
14349;DHT22;7258;50.376;8.742;2023-08-17T06:01:28;18.10;99.90
14349;DHT22;7258;50.376;8.742;2023-08-17T06:03:34;18.10;99.90
14349;DHT22;7258;50.376;8.742;2023-08-17T06:05:37;18.20;99.90
14349;DHT22;7258;50.376;8.742;2023-08-17T06:07:40;18.20;99.90
14349;DHT22;7258;50.376;8.742;2023-08-17T06:09:43;18.30;99.90
14349;DHT22;7258;50.376;8.742;2023-08-17T06:11:46;18.30;99.90
14349;DHT22;7258;50.376;8.742;2023-08-17T06:13:48;18.40;99.90
14349;DHT22;7258;50.376;8.742;2023-08-17T06:15:51;18.40;99.90
14349;DHT22;7258;50.376;8.742;2023-08-17T06:17:53;18.50;99.90
14349;DHT22;7258;50.376;8.742;2023-08-17T06:19:58;18.50;99.90
14349;DHT22;7258;50.376;8.742;2023-08-17T06:22:01;18.50;99.90
14349;DHT22;7258;50.376;8.742;2023-08-17T06:24:04;18.60;99.90
14349;DHT22;7258;50.376;8.742;2023-08-17T06:26:06;18.70;99.90
14349;DHT22;7258;50.376;8.742;2023-08-17T06:28:09;18.80;99.90
14349;DHT22;7258;50.376;8.742;2023-08-17T06:30:12;18.80;99.90
14349;DHT22;7258;50.376;8.742;2023-08-17T06:32:15;18.90;99.90
14349;DHT22;7258;50.376;8.742;2023-08-17T06:34:18;19.00;99.90
14349;DHT22;7258;50.376;8.742;2023-08-17T06:36:22;19.10;99.90
14349;DHT22;7258;50.376;8.742;2023-08-17T06:38:24;19.20;99.90
14349;DHT22;7258;50.376;8.742;2023-08-17T06:40:27;19.30;99.90
14349;DHT22;7258;50.376;8.742;2023-08-17T06:42:30;19.30;99.90
14349;DHT22;7258;50.376;8.742;2023-08-17T06:44:32;19.30;99.90
14349;DHT22;7258;50.376;8.742;2023-08-17T06:46:35;19.30;99.90
14349;DHT22;7258;50.376;8.742;2023-08-17T06:48:38;19.30;99.90
14349;DHT22;7258;50.376;8.742;2023-08-17T06:50:41;19.30;99.90
14349;DHT22;7258;50.376;8.742;2023-08-17T06:52:45;19.20;99.90
14349;DHT22;7258;50.376;8.742;2023-08-17T06:54:47;19.20;99.90
14349;DHT22;7258;50.376;8.742;2023-08-17T06:56:50;19.20;99.90
14349;DHT22;7258;50.376;8.742;2023-08-17T06:58:53;19.10;99.90
14349;DHT22;7258;50.376;8.742;2023-08-17T07:00:56;19.00;99.90
14349;DHT22;7258;50.376;8.742;2023-08-17T07:02:58;19.10;99.90
14349;DHT22;7258;50.376;8.742;2023-08-17T07:05:02;19.30;99.90
14349;DHT22;7258;50.376;8.742;2023-08-17T07:07:06;19.60;99.90
14349;DHT22;7258;50.376;8.742;2023-08-17T07:09:10;19.70;99.90
14349;DHT22;7258;50.376;8.742;2023-08-17T07:11:14;19.80;99.90
14349;DHT22;7258;50.376;8.742;2023-08-17T07:13:17;19.70;99.90
14349;DHT22;7258;50.376;8.742;2023-08-17T07:15:20;19.70;99.90
14349;DHT22;7258;50.376;8.742;2023-08-17T07:17:23;19.80;99.90
14349;DHT22;7258;50.376;8.742;2023-08-17T07:19:26;19.90;99.90
14349;DHT22;7258;50.376;8.742;2023-08-17T07:21:49;19.90;99.90
14349;DHT22;7258;50.376;8.742;2023-08-17T07:23:54;20.00;99.90
14349;DHT22;7258;50.376;8.742;2023-08-17T07:25:57;20.10;99.90
14349;DHT22;7258;50.376;8.742;2023-08-17T07:28:00;20.20;99.90
14349;DHT22;7258;50.376;8.742;2023-08-17T07:30:04;20.10;99.90
14349;DHT22;7258;50.376;8.742;2023-08-17T07:32:07;20.20;99.90
14349;DHT22;7258;50.376;8.742;2023-08-17T07:34:10;20.20;99.90
14349;DHT22;7258;50.376;8.742;2023-08-17T07:36:13;20.10;99.90
14349;DHT22;7258;50.376;8.742;2023-08-17T07:38:16;20.20;99.90
14349;DHT22;7258;50.376;8.742;2023-08-17T07:40:19;20.30;99.90
14349;DHT22;7258;50.376;8.742;2023-08-17T07:42:22;20.50;99.90
14349;DHT22;7258;50.376;8.742;2023-08-17T07:44:28;20.50;99.90
14349;DHT22;7258;50.376;8.742;2023-08-17T07:46:33;20.50;99.90
14349;DHT22;7258;50.376;8.742;2023-08-17T07:48:35;20.70;99.90
14349;DHT22;7258;50.376;8.742;2023-08-17T07:50:38;20.70;99.90
14349;DHT22;7258;50.376;8.742;2023-08-17T07:52:40;20.90;99.90
14349;DHT22;7258;50.376;8.742;2023-08-17T07:54:43;21.20;99.90
14349;DHT22;7258;50.376;8.742;2023-08-17T07:56:47;21.30;99.90
14349;DHT22;7258;50.376;8.742;2023-08-17T07:58:50;21.40;99.90
14349;DHT22;7258;50.376;8.742;2023-08-17T08:00:53;21.40;99.90
14349;DHT22;7258;50.376;8.742;2023-08-17T08:02:56;21.30;99.90
14349;DHT22;7258;50.376;8.742;2023-08-17T08:04:59;21.20;99.90
14349;DHT22;7258;50.376;8.742;2023-08-17T08:07:01;21.10;99.90
14349;DHT22;7258;50.376;8.742;2023-08-17T08:09:04;21.10;99.90
14349;DHT22;7258;50.376;8.742;2023-08-17T08:11:10;21.20;99.90
14349;DHT22;7258;50.376;8.742;2023-08-17T08:13:13;21.40;99.90
14349;DHT22;7258;50.376;8.742;2023-08-17T08:15:18;21.50;99.90
14349;DHT22;7258;50.376;8.742;2023-08-17T08:17:21;21.60;99.90
14349;DHT22;7258;50.376;8.742;2023-08-17T08:19:24;21.80;99.90
14349;DHT22;7258;50.376;8.742;2023-08-17T08:21:27;21.90;99.90
14349;DHT22;7258;50.376;8.742;2023-08-17T08:23:30;21.90;99.90
14349;DHT22;7258;50.376;8.742;2023-08-17T08:25:33;22.00;99.90
14349;DHT22;7258;50.376;8.742;2023-08-17T08:27:36;22.20;99.90
14349;DHT22;7258;50.376;8.742;2023-08-17T08:29:39;22.30;99.90
14349;DHT22;7258;50.376;8.742;2023-08-17T08:31:44;22.40;99.90
14349;DHT22;7258;50.376;8.742;2023-08-17T08:33:47;22.50;99.90
14349;DHT22;7258;50.376;8.742;2023-08-17T08:35:50;22.60;99.90
14349;DHT22;7258;50.376;8.742;2023-08-17T08:37:54;22.70;99.90
14349;DHT22;7258;50.376;8.742;2023-08-17T08:40:00;22.80;99.90
14349;DHT22;7258;50.376;8.742;2023-08-17T08:42:03;22.80;99.90
14349;DHT22;7258;50.376;8.742;2023-08-17T08:44:06;22.90;99.90
14349;DHT22;7258;50.376;8.742;2023-08-17T08:46:09;22.90;99.90
14349;DHT22;7258;50.376;8.742;2023-08-17T08:48:15;23.10;99.90
14349;DHT22;7258;50.376;8.742;2023-08-17T08:50:21;23.00;99.90
14349;DHT22;7258;50.376;8.742;2023-08-17T08:52:32;22.90;99.90
14349;DHT22;7258;50.376;8.742;2023-08-17T08:54:36;22.70;99.90
14349;DHT22;7258;50.376;8.742;2023-08-17T08:56:43;22.60;99.90
14349;DHT22;7258;50.376;8.742;2023-08-17T08:58:49;22.40;99.90
14349;DHT22;7258;50.376;8.742;2023-08-17T09:00:57;22.50;99.90
14349;DHT22;7258;50.376;8.742;2023-08-17T09:03:02;22.60;99.90
14349;DHT22;7258;50.376;8.742;2023-08-17T09:05:09;22.60;99.90
14349;DHT22;7258;50.376;8.742;2023-08-17T09:07:13;22.70;99.90
14349;DHT22;7258;50.376;8.742;2023-08-17T09:09:17;22.80;99.90
14349;DHT22;7258;50.376;8.742;2023-08-17T09:11:20;23.00;99.90
14349;DHT22;7258;50.376;8.742;2023-08-17T09:13:22;23.10;99.90
14349;DHT22;7258;50.376;8.742;2023-08-17T09:15:25;23.20;99.90
14349;DHT22;7258;50.376;8.742;2023-08-17T09:17:31;23.30;99.90
14349;DHT22;7258;50.376;8.742;2023-08-17T09:19:36;23.40;99.90
14349;DHT22;7258;50.376;8.742;2023-08-17T09:21:44;23.50;99.90
14349;DHT22;7258;50.376;8.742;2023-08-17T09:23:52;23.40;99.90
14349;DHT22;7258;50.376;8.742;2023-08-17T09:26:08;23.40;99.90
14349;DHT22;7258;50.376;8.742;2023-08-17T09:28:12;23.30;99.90
14349;DHT22;7258;50.376;8.742;2023-08-17T09:30:16;23.30;99.90
14349;DHT22;7258;50.376;8.742;2023-08-17T09:32:20;23.30;99.90
14349;DHT22;7258;50.376;8.742;2023-08-17T09:34:23;23.30;99.90
14349;DHT22;7258;50.376;8.742;2023-08-17T09:36:26;23.50;99.90
14349;DHT22;7258;50.376;8.742;2023-08-17T09:38:30;23.70;99.90
14349;DHT22;7258;50.376;8.742;2023-08-17T09:40:33;23.70;99.90
14349;DHT22;7258;50.376;8.742;2023-08-17T09:42:36;23.70;99.90
14349;DHT22;7258;50.376;8.742;2023-08-17T09:44:42;23.70;99.90
14349;DHT22;7258;50.376;8.742;2023-08-17T09:46:44;23.70;99.90
14349;DHT22;7258;50.376;8.742;2023-08-17T09:48:47;23.70;99.90
14349;DHT22;7258;50.376;8.742;2023-08-17T09:50:50;23.70;99.90
14349;DHT22;7258;50.376;8.742;2023-08-17T09:52:53;23.70;99.90
14349;DHT22;7258;50.376;8.742;2023-08-17T09:54:58;23.80;99.90
14349;DHT22;7258;50.376;8.742;2023-08-17T09:57:09;23.90;99.90
14349;DHT22;7258;50.376;8.742;2023-08-17T09:59:12;24.00;99.90
14349;DHT22;7258;50.376;8.742;2023-08-17T10:01:15;23.90;99.90
14349;DHT22;7258;50.376;8.742;2023-08-17T10:03:19;23.70;99.90
14349;DHT22;7258;50.376;8.742;2023-08-17T10:05:22;23.80;99.90
14349;DHT22;7258;50.376;8.742;2023-08-17T10:07:29;23.70;99.90
14349;DHT22;7258;50.376;8.742;2023-08-17T10:09:38;23.70;99.90
14349;DHT22;7258;50.376;8.742;2023-08-17T10:11:45;23.80;99.90
14349;DHT22;7258;50.376;8.742;2023-08-17T10:13:51;23.90;99.90
14349;DHT22;7258;50.376;8.742;2023-08-17T10:16:00;23.90;99.90
14349;DHT22;7258;50.376;8.742;2023-08-17T10:18:11;24.00;99.90
14349;DHT22;7258;50.376;8.742;2023-08-17T10:20:18;24.10;99.90
14349;DHT22;7258;50.376;8.742;2023-08-17T10:22:27;24.10;99.90
14349;DHT22;7258;50.376;8.742;2023-08-17T10:24:34;24.10;99.90
14349;DHT22;7258;50.376;8.742;2023-08-17T10:26:39;24.10;99.90
14349;DHT22;7258;50.376;8.742;2023-08-17T10:28:45;24.30;99.90
14349;DHT22;7258;50.376;8.742;2023-08-17T10:30:49;24.40;99.90
14349;DHT22;7258;50.376;8.742;2023-08-17T10:32:53;24.30;99.90
14349;DHT22;7258;50.376;8.742;2023-08-17T10:34:57;24.10;99.90
14349;DHT22;7258;50.376;8.742;2023-08-17T10:37:00;24.00;99.90
14349;DHT22;7258;50.376;8.742;2023-08-17T10:39:23;24.00;99.90
14349;DHT22;7258;50.376;8.742;2023-08-17T10:41:30;24.10;99.90
14349;DHT22;7258;50.376;8.742;2023-08-17T10:43:33;24.10;99.90
14349;DHT22;7258;50.376;8.742;2023-08-17T10:45:37;24.00;99.90
14349;DHT22;7258;50.376;8.742;2023-08-17T10:47:41;24.00;99.90
14349;DHT22;7258;50.376;8.742;2023-08-17T10:49:44;23.90;99.90
14349;DHT22;7258;50.376;8.742;2023-08-17T10:52:00;24.00;99.90
14349;DHT22;7258;50.376;8.742;2023-08-17T10:54:04;24.10;99.90
14349;DHT22;7258;50.376;8.742;2023-08-17T10:56:08;24.30;99.90
14349;DHT22;7258;50.376;8.742;2023-08-17T10:58:12;24.50;99.90
14349;DHT22;7258;50.376;8.742;2023-08-17T11:00:20;24.60;99.90
14349;DHT22;7258;50.376;8.742;2023-08-17T11:02:31;24.70;99.90
14349;DHT22;7258;50.376;8.742;2023-08-17T11:04:37;24.80;99.90
14349;DHT22;7258;50.376;8.742;2023-08-17T11:06:39;24.90;99.90
14349;DHT22;7258;50.376;8.742;2023-08-17T11:08:52;25.00;99.90
14349;DHT22;7258;50.376;8.742;2023-08-17T11:11:02;25.10;99.90
14349;DHT22;7258;50.376;8.742;2023-08-17T11:13:05;25.10;99.90
14349;DHT22;7258;50.376;8.742;2023-08-17T11:15:09;25.10;99.90
14349;DHT22;7258;50.376;8.742;2023-08-17T11:17:12;25.00;99.90
14349;DHT22;7258;50.376;8.742;2023-08-17T11:19:18;25.00;99.90
14349;DHT22;7258;50.376;8.742;2023-08-17T11:21:21;25.00;99.90
14349;DHT22;7258;50.376;8.742;2023-08-17T11:23:24;25.00;99.90
14349;DHT22;7258;50.376;8.742;2023-08-17T11:25:31;25.00;99.90
14349;DHT22;7258;50.376;8.742;2023-08-17T11:27:34;25.00;99.90
14349;DHT22;7258;50.376;8.742;2023-08-17T11:29:39;25.00;99.90
14349;DHT22;7258;50.376;8.742;2023-08-17T11:31:45;25.00;99.90
14349;DHT22;7258;50.376;8.742;2023-08-17T11:33:51;25.00;99.90
14349;DHT22;7258;50.376;8.742;2023-08-17T11:35:59;25.10;99.90
14349;DHT22;7258;50.376;8.742;2023-08-17T11:38:05;25.20;99.90
14349;DHT22;7258;50.376;8.742;2023-08-17T11:40:10;25.30;99.90
14349;DHT22;7258;50.376;8.742;2023-08-17T11:42:14;25.40;99.90
14349;DHT22;7258;50.376;8.742;2023-08-17T11:44:21;25.40;99.90
14349;DHT22;7258;50.376;8.742;2023-08-17T11:46:25;25.40;99.90
14349;DHT22;7258;50.376;8.742;2023-08-17T11:48:31;25.50;99.90
14349;DHT22;7258;50.376;8.742;2023-08-17T11:50:38;25.40;99.90
14349;DHT22;7258;50.376;8.742;2023-08-17T11:52:42;25.50;99.90
14349;DHT22;7258;50.376;8.742;2023-08-17T11:54:47;25.60;99.90
14349;DHT22;7258;50.376;8.742;2023-08-17T11:56:53;25.60;99.90
14349;DHT22;7258;50.376;8.742;2023-08-17T11:58:56;25.50;99.90
14349;DHT22;7258;50.376;8.742;2023-08-17T12:00:59;25.50;99.90
14349;DHT22;7258;50.376;8.742;2023-08-17T12:03:02;25.50;99.90
14349;DHT22;7258;50.376;8.742;2023-08-17T12:05:06;25.70;99.90
14349;DHT22;7258;50.376;8.742;2023-08-17T12:07:11;25.80;99.90
14349;DHT22;7258;50.376;8.742;2023-08-17T12:09:15;25.90;99.90
14349;DHT22;7258;50.376;8.742;2023-08-17T12:11:18;25.90;99.90
14349;DHT22;7258;50.376;8.742;2023-08-17T12:13:29;26.00;99.90
14349;DHT22;7258;50.376;8.742;2023-08-17T12:15:34;26.00;99.90
14349;DHT22;7258;50.376;8.742;2023-08-17T12:17:44;26.00;99.90
14349;DHT22;7258;50.376;8.742;2023-08-17T12:19:54;25.90;99.90
14349;DHT22;7258;50.376;8.742;2023-08-17T12:22:01;25.80;99.90
14349;DHT22;7258;50.376;8.742;2023-08-17T12:24:05;25.80;99.90
14349;DHT22;7258;50.376;8.742;2023-08-17T12:26:22;25.80;99.90
14349;DHT22;7258;50.376;8.742;2023-08-17T12:28:25;25.90;99.90
14349;DHT22;7258;50.376;8.742;2023-08-17T12:30:29;25.90;99.90
14349;DHT22;7258;50.376;8.742;2023-08-17T12:32:33;26.00;99.90
14349;DHT22;7258;50.376;8.742;2023-08-17T12:34:38;25.70;99.90
14349;DHT22;7258;50.376;8.742;2023-08-17T12:36:43;25.70;99.90
14349;DHT22;7258;50.376;8.742;2023-08-17T12:38:46;25.80;99.90
14349;DHT22;7258;50.376;8.742;2023-08-17T12:40:50;25.90;99.90
14349;DHT22;7258;50.376;8.742;2023-08-17T12:42:54;25.90;99.90
14349;DHT22;7258;50.376;8.742;2023-08-17T12:45:01;26.00;99.90
14349;DHT22;7258;50.376;8.742;2023-08-17T12:47:06;26.00;99.90
14349;DHT22;7258;50.376;8.742;2023-08-17T12:49:15;26.00;99.90
14349;DHT22;7258;50.376;8.742;2023-08-17T12:51:17;26.00;99.90
14349;DHT22;7258;50.376;8.742;2023-08-17T12:53:20;26.10;99.90
14349;DHT22;7258;50.376;8.742;2023-08-17T12:55:22;26.40;99.90
14349;DHT22;7258;50.376;8.742;2023-08-17T12:57:25;26.60;99.90
14349;DHT22;7258;50.376;8.742;2023-08-17T12:59:29;26.90;99.90
14349;DHT22;7258;50.376;8.742;2023-08-17T13:01:34;27.10;99.90
14349;DHT22;7258;50.376;8.742;2023-08-17T13:03:37;27.40;99.90
14349;DHT22;7258;50.376;8.742;2023-08-17T13:05:40;27.70;99.90
14349;DHT22;7258;50.376;8.742;2023-08-17T13:07:42;27.90;99.90
14349;DHT22;7258;50.376;8.742;2023-08-17T13:09:45;27.90;99.90
14349;DHT22;7258;50.376;8.742;2023-08-17T13:11:49;27.90;99.90
14349;DHT22;7258;50.376;8.742;2023-08-17T13:13:51;27.60;99.90
14349;DHT22;7258;50.376;8.742;2023-08-17T13:15:55;27.40;99.90